Previous Day
Next Day
Current Day
SHEF ID: FVSO2 FAIRVIEW
STATION TYPE: Mesonet
PRECIP AIR-TEMP WIND-DIRWIND-SPEED REL-HUMID SOLAR-RAD
in F deg mph % W/m2
Raw-Meson Raw-Meson Raw-Meson Raw-Meson Raw-Meson Raw-Meson
(US/Central)
05/14 00:00 0.00 53.20 147.25 5.37 86.25 0.00
05/14 01:00 0.00 51.22 145.75 5.03 91.25 0.00
05/14 02:00 0.00 54.37 179.25 7.11 83.00 0.00
05/14 03:00 0.00 57.38 185.75 11.41 79.75 0.00
05/14 04:00 0.00 56.61 181.75 7.49 82.00 0.00
05/14 05:00 0.00 55.36 168.50 5.48 83.75 0.00
05/14 06:00 0.00 54.63 161.50 5.14 85.00 0.00
05/14 07:00 0.00 52.70 148.50 6.71 88.25 13.75
05/14 08:00 0.00 54.50 145.25 6.32 85.50 174.25
05/14 09:00 0.00 62.10 181.00 9.73 67.25 324.75
05/14 10:00 0.00 66.43 173.25 11.69 59.50 516.50
05/14 11:00 0.00 68.90 169.50 13.81 56.00 673.00
05/14 12:00 0.00 71.47 172.50 14.21 54.50 802.25
05/14 13:00 0.00 74.16 175.25 14.76 52.50 919.75
05/14 14:00 0.00 75.25 184.75 14.54 52.25 945.25
05/14 15:00 0.00 75.38 175.25 14.26 51.75 645.75
05/14 16:00 0.00 73.99 180.25 15.21 55.25 390.25
05/14 17:00 0.00 74.16 168.00 14.87 55.50 606.25
05/14 18:00 0.00 74.03 149.50 15.38 55.00 352.75
05/14 19:00 0.00 73.67 154.25 17.50 54.00 287.50
05/14 20:00 0.00 70.97 153.75 14.71 58.50 88.00
05/14 21:00 0.00 68.59 150.50 12.36 63.25 3.75
05/14 22:00 0.00 66.16 149.75 12.24 68.50 0.00
05/14 23:00 ---- 64.18 148.00 13.92 71.75 0.00